< < Back
Terminal Aerodrome Forecast


Current Version              Previous Versions:   1  2  3  4  5  6  7  8  9  

Terminal Aerodrome Forecast

632
FTUS42 KGSP 300521
TAFAVL
TAF
KAVL 300521Z 3006/3106 00000KT P6SM FEW150
     FM300800 00000KT 4SM BR SCT250
     FM301200 00000KT P6SM SCT250
     FM301600 15006KT P6SM SCT017 BKN040
     FM302000 17007KT P6SM SCT060
     FM310100 00000KT P6SM SCT110=



Latest METAR

004
SAUS70 KWBC 301800 RRL
MTRAVL
METAR KAVL 301754Z 12007KT 10SM SCT036 BKN045 BKN060 24/16 A3023 RMK AO2
SLP213 T02390156 10256 20161 58010


USA.gov is the U.S. government's official web portal to all federal, state and local government web resources and services.